Weather at Innsbruck Airport

Public forecast

Using degrees Celsius for public forecast. Weather courtesy of forecast.io.

Current aviation weather report (METAR) for Innsbruck Airport

2024/06/19 03:50 (retrieved 36 minutes ago)

LOWI 190350Z 27005KT 230V330 CAVOK 16/12 Q1016 NOSIG

Closest aviation forecast (TAF) to Innsbruck Airport

Forecast is more than 6 hours old.

Closest forecast is Bolzano Airport, 48.0 nm (89.0 km) S.

2024/06/18 18:07 (retrieved 10 hours ago)

TAF LIPB 182103Z 1818/1918 CNL